createdAt,value
2018-11-13T00:01:23.532Z,12.73
2018-11-13T00:03:51.773Z,10.90
2018-11-13T00:06:19.994Z,9.83
2018-11-13T00:08:48.801Z,10.30
2018-11-13T00:11:17.075Z,10.03
2018-11-13T00:13:45.194Z,9.00
2018-11-13T00:16:13.375Z,11.23
2018-11-13T00:18:41.622Z,9.20
2018-11-13T00:21:09.880Z,10.10
2018-11-13T00:23:38.017Z,9.37
2018-11-13T00:26:06.247Z,10.87
2018-11-13T00:28:34.480Z,10.60
2018-11-13T00:31:02.675Z,9.67
2018-11-13T00:33:30.894Z,10.83
2018-11-13T00:35:59.152Z,10.10
2018-11-13T00:38:27.326Z,10.43
2018-11-13T00:40:56.126Z,10.40
2018-11-13T00:43:24.297Z,10.37
2018-11-13T00:45:55.913Z,10.40
2018-11-13T00:48:23.647Z,10.77
2018-11-13T00:50:51.795Z,10.07
2018-11-13T00:53:20.002Z,9.90
2018-11-13T00:55:48.118Z,9.90
2018-11-13T00:58:16.267Z,11.10
2018-11-13T01:00:44.492Z,10.60
2018-11-13T01:03:12.597Z,9.80
2018-11-13T01:05:40.759Z,9.60
2018-11-13T01:08:08.915Z,10.40
2018-11-13T01:10:37.231Z,10.43
2018-11-13T01:13:05.784Z,11.23
2018-11-13T01:15:33.996Z,9.80
2018-11-13T01:18:02.135Z,10.60
2018-11-13T01:20:30.309Z,9.70
2018-11-13T01:22:58.499Z,10.43
2018-11-13T01:25:27.012Z,9.47
2018-11-13T01:27:55.188Z,10.10
2018-11-13T01:30:23.431Z,10.80
2018-11-13T01:32:51.741Z,10.40
2018-11-13T01:35:20.083Z,12.00
2018-11-13T01:37:48.293Z,9.97
2018-11-13T01:40:18.319Z,10.50
2018-11-13T01:42:46.441Z,10.73
2018-11-13T01:45:15.603Z,17.23
2018-11-13T01:47:43.746Z,11.30
2018-11-13T01:50:12.379Z,10.70
2018-11-13T01:52:40.538Z,10.87
2018-11-13T01:55:10.549Z,11.10
2018-11-13T01:57:38.693Z,11.07
2018-11-13T02:00:15.755Z,10.73
2018-11-13T02:02:44.799Z,8.93
2018-11-13T02:05:12.919Z,11.33
2018-11-13T02:07:41.255Z,10.47
2018-11-13T02:10:09.662Z,10.67
2018-11-13T02:12:37.836Z,10.07
2018-11-13T02:15:07.141Z,10.03
2018-11-13T02:17:35.531Z,10.30
2018-11-13T02:20:04.303Z,9.70
2018-11-13T02:22:32.406Z,9.87
2018-11-13T02:25:00.719Z,10.03
2018-11-13T02:27:28.824Z,10.30
2018-11-13T02:29:56.933Z,10.43
2018-11-13T02:32:25.059Z,9.93
2018-11-13T02:34:53.249Z,10.23
2018-11-13T02:37:21.918Z,9.57
2018-11-13T02:39:50.019Z,10.77
2018-11-13T02:42:18.145Z,9.27
2018-11-13T02:44:46.271Z,9.67
2018-11-13T02:47:14.529Z,9.50
2018-11-13T02:49:42.823Z,10.10
2018-11-13T02:52:11.035Z,10.93
2018-11-13T02:54:39.136Z,10.90
2018-11-13T02:57:07.263Z,10.83
2018-11-13T02:59:35.428Z,9.97
2018-11-13T03:02:03.658Z,9.97
2018-11-13T03:04:31.777Z,10.00
2018-11-13T03:06:59.904Z,10.23
2018-11-13T03:09:28.059Z,10.73
2018-11-13T03:11:56.295Z,10.33
2018-11-13T03:14:24.596Z,9.87
2018-11-13T03:16:52.697Z,11.00
2018-11-13T03:19:20.872Z,10.33
2018-11-13T03:21:49.180Z,10.70
2018-11-13T03:24:17.310Z,10.40
2018-11-13T03:26:45.500Z,10.57
2018-11-13T03:29:13.590Z,10.83
2018-11-13T03:31:41.899Z,10.77
2018-11-13T03:34:10.179Z,10.87
2018-11-13T03:36:38.794Z,10.70
2018-11-13T03:39:08.221Z,11.30
2018-11-13T03:41:36.594Z,11.37
2018-11-13T03:44:05.078Z,11.07
2018-11-13T03:46:33.199Z,9.97
2018-11-13T03:49:01.366Z,11.50
2018-11-13T03:51:29.546Z,10.93
2018-11-13T03:53:57.649Z,10.37
2018-11-13T03:56:25.810Z,10.73
2018-11-13T03:58:53.908Z,10.73
2018-11-13T04:01:22.045Z,11.00
2018-11-13T04:03:51.089Z,20.40
2018-11-13T04:06:19.216Z,11.23
2018-11-13T04:08:47.326Z,12.10
2018-11-13T04:11:15.478Z,11.80
2018-11-13T04:13:43.584Z,11.20
2018-11-13T04:16:11.673Z,10.23
2018-11-13T04:18:39.832Z,11.07
2018-11-13T04:21:07.969Z,10.47
2018-11-13T04:23:36.111Z,12.13
2018-11-13T04:26:04.253Z,12.23
2018-11-13T04:28:32.503Z,12.53
2018-11-13T04:31:00.817Z,10.83
2018-11-13T04:33:28.996Z,11.20
2018-11-13T04:35:57.254Z,11.93
2018-11-13T04:38:25.476Z,12.33
2018-11-13T04:40:53.604Z,11.33
2018-11-13T04:43:21.912Z,10.87
2018-11-13T04:45:50.095Z,11.00
2018-11-13T04:48:18.231Z,12.03
2018-11-13T04:50:46.351Z,11.43
2018-11-13T04:53:14.495Z,11.53
2018-11-13T04:55:42.634Z,11.93
2018-11-13T04:58:10.793Z,11.83
2018-11-13T05:00:38.932Z,12.60
2018-11-13T05:03:07.201Z,12.27
2018-11-13T05:05:35.323Z,12.37
2018-11-13T05:08:03.523Z,15.13
2018-11-13T05:10:31.715Z,16.23
2018-11-13T05:12:59.963Z,13.07
2018-11-13T05:15:28.167Z,12.53
2018-11-13T05:17:56.459Z,15.13
2018-11-13T05:20:24.597Z,14.07
2018-11-13T05:22:52.845Z,12.67
2018-11-13T05:25:21.509Z,12.20
2018-11-13T05:27:49.711Z,13.63
2018-11-13T05:30:22.079Z,12.80
2018-11-13T05:32:50.437Z,13.57
2018-11-13T05:35:19.657Z,13.00
2018-11-13T05:37:48.194Z,13.20
2018-11-13T05:40:18.103Z,13.50
2018-11-13T05:42:46.342Z,14.73
2018-11-13T05:45:15.865Z,15.40
2018-11-13T05:47:44.248Z,13.77
2018-11-13T05:50:13.754Z,14.07
2018-11-13T05:52:42.745Z,14.07
2018-11-13T05:55:11.225Z,13.60
2018-11-13T05:57:39.596Z,15.23
2018-11-13T06:00:12.392Z,16.77
2018-11-13T06:02:40.530Z,15.53
2018-11-13T06:05:09.362Z,15.27
2018-11-13T06:07:37.475Z,15.50
2018-11-13T06:10:06.751Z,16.30
2018-11-13T06:12:34.916Z,14.63
2018-11-13T06:15:03.072Z,16.93
2018-11-13T06:17:31.203Z,17.40
2018-11-13T06:19:59.331Z,15.10
2018-11-13T06:22:27.490Z,15.23
2018-11-13T06:24:55.633Z,15.50
2018-11-13T06:27:23.908Z,16.63
2018-11-13T06:29:52.174Z,15.70
2018-11-13T06:32:20.463Z,16.83
2018-11-13T06:34:48.824Z,16.30
2018-11-13T06:37:17.116Z,17.47
2018-11-13T06:39:45.517Z,18.87
2018-11-13T06:42:13.757Z,17.90
2018-11-13T06:44:41.985Z,22.83
2018-11-13T06:47:10.239Z,18.33
2018-11-13T06:49:38.503Z,19.80
2018-11-13T06:52:06.607Z,21.10
2018-11-13T06:54:46.346Z,20.90
2018-11-13T06:57:14.549Z,22.53
2018-11-13T06:59:42.708Z,21.87
2018-11-13T07:02:10.853Z,21.23
2018-11-13T07:04:39.007Z,21.53
2018-11-13T07:07:07.124Z,21.70
2018-11-13T07:09:35.302Z,25.13
2018-11-13T07:12:03.462Z,21.90
2018-11-13T07:14:31.644Z,21.40
2018-11-13T07:16:59.797Z,20.47
2018-11-13T07:19:27.982Z,22.93
2018-11-13T07:21:56.192Z,21.27
2018-11-13T07:24:24.322Z,22.73
2018-11-13T07:26:52.489Z,22.50
2018-11-13T07:29:20.692Z,21.10
2018-11-13T07:31:48.886Z,19.33
2018-11-13T07:34:17.136Z,18.97
2018-11-13T07:36:45.235Z,19.17
2018-11-13T07:39:13.367Z,18.97
2018-11-13T07:41:41.734Z,19.43
2018-11-13T07:44:09.866Z,24.57
2018-11-13T07:46:38.061Z,21.63
2018-11-13T07:49:06.134Z,20.63
2018-11-13T07:51:34.422Z,19.83
2018-11-13T07:54:02.818Z,18.83
2018-11-13T07:56:30.978Z,19.57
2018-11-13T07:58:59.120Z,20.27
2018-11-13T08:01:27.287Z,19.13
2018-11-13T08:03:55.468Z,19.77
2018-11-13T08:06:23.681Z,19.27
2018-11-13T08:08:51.867Z,18.17
2018-11-13T08:11:20.027Z,20.40
2018-11-13T08:13:48.236Z,19.77
2018-11-13T08:16:16.396Z,19.93
2018-11-13T08:18:44.577Z,20.33
2018-11-13T08:21:12.778Z,20.20
2018-11-13T08:23:40.908Z,19.53
2018-11-13T08:26:09.297Z,19.27
2018-11-13T08:28:37.502Z,18.23
2018-11-13T08:31:06.249Z,18.60
2018-11-13T08:33:34.370Z,17.77
2018-11-13T08:36:02.670Z,20.20
2018-11-13T08:38:30.765Z,19.90
2018-11-13T08:40:58.928Z,19.07
2018-11-13T08:43:27.068Z,19.30
2018-11-13T08:45:55.196Z,19.70
2018-11-13T08:48:23.320Z,18.63
2018-11-13T08:50:51.515Z,20.70
2018-11-13T08:53:19.646Z,21.97
2018-11-13T08:55:47.885Z,21.03
2018-11-13T08:58:16.071Z,20.10
2018-11-13T09:00:44.190Z,21.17
2018-11-13T09:03:12.317Z,19.23
2018-11-13T09:05:40.448Z,18.77
2018-11-13T09:08:08.633Z,19.83
2018-11-13T09:10:37.897Z,19.47
2018-11-13T09:13:06.473Z,20.13
2018-11-13T09:15:34.650Z,21.07
2018-11-13T09:18:02.797Z,20.17
2018-11-13T09:20:30.957Z,19.83
2018-11-13T09:22:59.171Z,20.57
2018-11-13T09:25:27.369Z,18.10
2018-11-13T09:27:55.553Z,19.47
2018-11-13T09:30:24.032Z,19.60
2018-11-13T09:32:52.162Z,20.37
2018-11-13T09:35:20.637Z,19.10
2018-11-13T09:37:48.793Z,18.77
2018-11-13T09:40:19.265Z,20.23
2018-11-13T09:42:48.639Z,21.97
2018-11-13T09:45:17.207Z,19.73
2018-11-13T09:47:45.371Z,18.40
2018-11-13T09:50:15.135Z,20.80
2018-11-13T09:52:44.643Z,18.87
2018-11-13T09:55:14.261Z,19.97
2018-11-13T09:57:42.525Z,19.70
2018-11-13T10:00:14.347Z,19.00
2018-11-13T10:02:44.057Z,17.60
2018-11-13T10:05:12.138Z,19.03
2018-11-13T10:07:39.944Z,19.60
2018-11-13T10:10:09.134Z,17.57
2018-11-13T10:12:37.354Z,17.63
2018-11-13T10:15:08.075Z,19.50
2018-11-13T10:17:36.226Z,17.60
2018-11-13T10:20:04.389Z,17.40
2018-11-13T10:22:32.576Z,16.93
2018-11-13T10:25:00.736Z,18.20
2018-11-13T10:27:28.926Z,17.53
2018-11-13T10:29:57.377Z,30.27
2018-11-13T10:32:25.526Z,17.70
2018-11-13T10:34:53.691Z,17.30
2018-11-13T10:37:21.959Z,17.47
2018-11-13T10:39:50.204Z,15.57
2018-11-13T10:42:18.322Z,16.03
2018-11-13T10:44:46.531Z,15.03
2018-11-13T10:47:14.709Z,17.20
2018-11-13T10:49:42.886Z,18.83
2018-11-13T10:52:11.018Z,21.60
2018-11-13T10:54:39.337Z,17.47
2018-11-13T10:57:07.573Z,16.40
2018-11-13T10:59:35.725Z,16.77
2018-11-13T11:03:11.878Z,16.83
2018-11-13T11:05:40.242Z,15.77
2018-11-13T11:08:08.473Z,14.50
2018-11-13T11:10:36.638Z,14.43
2018-11-13T11:13:05.489Z,15.93
2018-11-13T11:15:33.408Z,14.93
2018-11-13T11:18:01.627Z,14.50
2018-11-13T11:20:29.801Z,16.23
2018-11-13T11:22:57.954Z,15.90
2018-11-13T11:25:26.317Z,15.43
2018-11-13T11:27:54.631Z,14.70
2018-11-13T11:30:22.707Z,15.37
2018-11-13T11:32:51.308Z,15.13
2018-11-13T11:35:19.442Z,14.13
2018-11-13T11:37:47.617Z,14.93
2018-11-13T11:40:15.802Z,14.80
2018-11-13T11:42:43.978Z,15.03
2018-11-13T11:45:13.443Z,15.43
2018-11-13T11:47:41.740Z,15.13
2018-11-13T11:50:10.972Z,15.53
2018-11-13T11:52:39.184Z,15.87
2018-11-13T11:55:08.213Z,17.10
2018-11-13T11:57:36.476Z,17.73
2018-11-13T12:00:07.070Z,16.97
2018-11-13T12:02:35.248Z,16.33
2018-11-13T12:05:03.569Z,17.07
2018-11-13T12:07:31.899Z,17.47
2018-11-13T12:10:00.293Z,16.60
2018-11-13T12:12:28.501Z,16.87
2018-11-13T12:14:56.842Z,17.30
2018-11-13T12:17:25.055Z,16.87
2018-11-13T12:19:53.431Z,17.00
2018-11-13T12:22:21.660Z,17.83
2018-11-13T12:24:49.876Z,16.70
2018-11-13T12:27:18.293Z,17.13
2018-11-13T12:29:46.512Z,17.67
2018-11-13T12:32:14.719Z,17.40
2018-11-13T12:34:42.876Z,17.07
2018-11-13T12:37:11.079Z,15.57
2018-11-13T12:39:39.345Z,14.87
2018-11-13T12:42:07.644Z,16.00
2018-11-13T12:44:35.799Z,14.27
2018-11-13T12:47:04.261Z,14.53
2018-11-13T12:49:32.435Z,15.30
2018-11-13T12:52:06.028Z,16.10
2018-11-13T12:54:34.217Z,15.37
2018-11-13T12:57:02.446Z,15.03
2018-11-13T12:59:30.663Z,15.30
2018-11-13T13:01:58.815Z,15.67
2018-11-13T13:04:27.057Z,15.37
2018-11-13T13:06:55.218Z,15.27
2018-11-13T13:09:23.394Z,15.30
2018-11-13T13:11:52.679Z,15.17
2018-11-13T13:14:20.819Z,14.77
2018-11-13T13:16:48.979Z,15.87
2018-11-13T13:19:17.184Z,13.70
2018-11-13T13:21:45.323Z,15.10
2018-11-13T13:24:13.483Z,14.37
2018-11-13T13:26:41.665Z,14.50
2018-11-13T13:29:09.840Z,13.37
2018-11-13T13:31:38.026Z,14.63
2018-11-13T13:34:06.175Z,13.27
2018-11-13T13:36:34.501Z,15.43
2018-11-13T13:39:02.702Z,13.97
2018-11-13T13:41:30.970Z,14.37
2018-11-13T13:43:59.168Z,13.40
2018-11-13T13:46:27.327Z,12.97
2018-11-13T13:48:55.474Z,12.97
2018-11-13T13:51:23.647Z,13.33
2018-11-13T13:53:51.987Z,13.67
2018-11-13T13:56:20.081Z,12.37
2018-11-13T13:58:48.383Z,12.83
2018-11-13T14:01:16.610Z,11.00
2018-11-13T14:03:44.977Z,11.97
2018-11-13T14:06:13.258Z,11.87
2018-11-13T14:08:41.947Z,11.27
2018-11-13T14:11:10.074Z,14.77
2018-11-13T14:13:38.250Z,11.97
2018-11-13T14:16:06.728Z,12.23
2018-11-13T14:18:34.936Z,11.37
2018-11-13T14:21:03.235Z,11.13
2018-11-13T14:23:31.265Z,10.90
2018-11-13T14:25:59.748Z,10.90
2018-11-13T14:28:27.929Z,9.27
2018-11-13T14:30:56.101Z,9.57
2018-11-13T14:33:24.245Z,10.03
2018-11-13T14:35:52.410Z,11.10
2018-11-13T14:38:20.611Z,10.70
2018-11-13T14:40:49.208Z,10.20
2018-11-13T14:43:17.373Z,10.07
2018-11-13T14:45:46.173Z,10.03
2018-11-13T14:48:14.418Z,9.73
2018-11-13T14:50:43.259Z,10.03
2018-11-13T14:53:12.123Z,10.80
2018-11-13T14:55:42.173Z,9.50
2018-11-13T14:58:11.459Z,10.87
2018-11-13T15:00:40.037Z,9.93
2018-11-13T15:03:09.658Z,10.10
2018-11-13T15:05:37.819Z,9.30
2018-11-13T15:08:07.178Z,9.13
2018-11-13T15:10:40.140Z,11.27
2018-11-13T15:13:08.725Z,10.10
2018-11-13T15:15:36.849Z,13.53
2018-11-13T15:18:05.325Z,11.07
2018-11-13T15:20:33.566Z,11.67
2018-11-13T15:23:01.801Z,11.83
2018-11-13T15:25:30.033Z,10.37
2018-11-13T15:27:58.155Z,12.37
2018-11-13T15:30:28.169Z,10.33
2018-11-13T15:32:59.750Z,12.17
2018-11-13T15:35:27.954Z,11.80
2018-11-13T15:37:56.174Z,11.20
2018-11-13T15:40:26.772Z,11.93
2018-11-13T15:42:54.903Z,8.60
2018-11-13T15:45:23.088Z,6.77
2018-11-13T15:47:52.118Z,4.13
2018-11-13T15:50:24.703Z,3.10
2018-11-13T15:52:52.922Z,3.13
2018-11-13T15:55:21.092Z,3.00
2018-11-13T15:57:49.546Z,3.30
2018-11-13T16:00:23.915Z,3.07
2018-11-13T16:02:52.580Z,3.93
2018-11-13T16:05:26.227Z,3.57
2018-11-13T16:07:55.576Z,4.00
2018-11-13T16:10:23.946Z,7.47
2018-11-13T16:12:52.187Z,3.13
2018-11-13T16:15:21.408Z,3.57
2018-11-13T16:17:50.368Z,6.57
2018-11-13T16:20:18.690Z,3.57
2018-11-13T16:22:46.835Z,3.20
2018-11-13T16:25:15.011Z,4.53
2018-11-13T16:27:43.197Z,4.93
2018-11-13T16:30:15.370Z,4.03
2018-11-13T16:32:44.522Z,4.33
2018-11-13T16:35:13.829Z,4.20
2018-11-13T16:37:43.268Z,5.63
2018-11-13T16:40:28.335Z,4.47
2018-11-13T16:42:56.469Z,3.93
2018-11-13T16:45:25.468Z,5.80
2018-11-13T16:47:54.240Z,5.50
2018-11-13T16:50:23.548Z,5.17
2018-11-13T16:52:51.836Z,5.53
2018-11-13T16:55:25.261Z,4.47
2018-11-13T16:57:54.059Z,4.90
2018-11-13T17:00:22.941Z,4.67
2018-11-13T17:02:51.119Z,5.40
2018-11-13T17:05:20.319Z,5.60
2018-11-13T17:07:48.470Z,4.93
2018-11-13T17:10:18.052Z,4.20
2018-11-13T17:12:46.492Z,3.37
2018-11-13T17:15:17.478Z,3.60
2018-11-13T17:17:46.546Z,3.20
2018-11-13T17:20:15.057Z,3.40
2018-11-13T17:22:43.706Z,2.70
2018-11-13T17:25:13.197Z,2.70
2018-11-13T17:27:42.510Z,2.67
2018-11-13T17:30:12.901Z,2.03
2018-11-13T17:32:41.552Z,2.27
2018-11-13T17:35:10.842Z,2.07
2018-11-13T17:37:38.992Z,1.77
2018-11-13T17:40:09.944Z,2.43
2018-11-13T17:42:38.241Z,2.20
2018-11-13T17:45:09.171Z,1.80
2018-11-13T17:47:37.587Z,1.90
2018-11-13T17:50:10.611Z,1.73
2018-11-13T17:52:38.794Z,2.63
2018-11-13T17:55:14.783Z,1.87
2018-11-13T17:57:43.936Z,2.00
2018-11-13T18:00:18.053Z,2.10
2018-11-13T18:02:47.533Z,1.87
2018-11-13T18:05:16.048Z,1.90
2018-11-13T18:07:44.617Z,1.87
2018-11-13T18:10:12.762Z,1.80
2018-11-13T18:12:40.945Z,4.30
2018-11-13T18:15:12.468Z,2.30
2018-11-13T18:17:40.610Z,1.90
2018-11-13T18:20:10.922Z,2.47
2018-11-13T18:22:39.392Z,2.37
2018-11-13T18:25:08.190Z,3.20
2018-11-13T18:27:37.135Z,2.60
2018-11-13T18:30:07.807Z,2.80
2018-11-13T18:32:36.004Z,2.60
2018-11-13T18:35:04.325Z,3.10
2018-11-13T18:37:32.610Z,3.10
2018-11-13T18:40:00.736Z,2.17
2018-11-13T18:42:28.979Z,2.50
2018-11-13T18:44:57.347Z,5.23
2018-11-13T18:47:25.541Z,4.00
2018-11-13T18:49:53.782Z,3.40
2018-11-13T18:52:22.153Z,2.97
2018-11-13T18:54:50.406Z,4.00
2018-11-13T18:57:18.657Z,2.70
2018-11-13T18:59:46.916Z,4.90
2018-11-13T19:02:15.240Z,3.13
2018-11-13T19:04:43.745Z,3.10
2018-11-13T19:07:13.074Z,3.43
2018-11-13T19:09:41.295Z,4.00
2018-11-13T19:12:09.552Z,3.00
2018-11-13T19:14:37.822Z,4.00
2018-11-13T19:17:06.067Z,4.13
2018-11-13T19:19:34.439Z,3.30
2018-11-13T19:22:02.735Z,3.97
2018-11-13T19:24:30.991Z,4.20
2018-11-13T19:26:59.240Z,3.70
2018-11-13T19:29:27.590Z,3.57
2018-11-13T19:31:55.790Z,4.47
2018-11-13T19:34:24.390Z,4.10
2018-11-13T19:36:52.820Z,4.30
2018-11-13T19:39:21.319Z,4.87
2018-11-13T19:41:49.613Z,4.50
2018-11-13T19:44:17.949Z,4.87
2018-11-13T19:46:46.262Z,5.20
2018-11-13T19:49:14.579Z,4.77
2018-11-13T19:51:43.122Z,5.27
2018-11-13T19:54:11.412Z,4.67
2018-11-13T19:56:40.682Z,5.27
2018-11-13T19:59:08.999Z,4.70
2018-11-13T20:01:37.436Z,8.57
2018-11-13T20:04:06.235Z,5.23
2018-11-13T20:06:34.451Z,5.83
2018-11-13T20:09:03.445Z,5.53
2018-11-13T20:11:35.924Z,5.87
2018-11-13T20:14:04.209Z,5.47
2018-11-13T20:16:32.745Z,5.23
2018-11-13T20:19:00.998Z,5.80
2018-11-13T20:21:29.334Z,5.90
2018-11-13T20:23:58.563Z,5.30
2018-11-13T20:26:26.876Z,6.07
2018-11-13T20:28:55.393Z,6.53
2018-11-13T20:31:23.721Z,6.37
2018-11-13T20:33:51.970Z,5.73
2018-11-13T20:36:20.296Z,5.80
2018-11-13T20:38:48.587Z,5.63
2018-11-13T20:41:16.951Z,6.17
2018-11-13T20:43:45.230Z,5.70
2018-11-13T20:46:13.912Z,5.70
2018-11-13T20:48:42.853Z,6.23
2018-11-13T20:51:11.142Z,5.57
2018-11-13T20:53:39.540Z,5.97
2018-11-13T20:56:07.822Z,5.23
2018-11-13T20:58:36.123Z,5.97
2018-11-13T21:01:04.406Z,6.27
2018-11-13T21:03:32.707Z,6.47
2018-11-13T21:06:01.045Z,6.80
2018-11-13T21:08:29.281Z,6.23
2018-11-13T21:10:59.310Z,6.80
2018-11-13T21:13:27.265Z,7.13
2018-11-13T21:15:55.818Z,6.97
2018-11-13T21:18:24.273Z,7.10
2018-11-13T21:20:52.527Z,7.37
2018-11-13T21:23:20.817Z,8.40
2018-11-13T21:25:49.049Z,8.53
2018-11-13T21:28:17.410Z,7.77
2018-11-13T21:30:45.811Z,11.03
2018-11-13T21:33:14.703Z,20.83
2018-11-13T21:35:43.167Z,27.73
2018-11-13T21:38:11.431Z,13.23
2018-11-13T21:40:39.700Z,9.17
2018-11-13T21:43:08.078Z,8.87
2018-11-13T21:45:36.409Z,8.70
2018-11-13T21:48:05.216Z,7.60
2018-11-13T21:50:33.526Z,7.77
2018-11-13T21:53:02.590Z,7.77
2018-11-13T21:55:30.865Z,7.23
2018-11-13T21:57:59.015Z,7.90
2018-11-13T22:00:29.358Z,8.60
2018-11-13T22:03:00.004Z,7.27
2018-11-13T22:05:29.201Z,7.23
2018-11-13T22:07:57.458Z,7.70
2018-11-13T22:10:25.601Z,9.67
2018-11-13T22:12:54.138Z,8.03
2018-11-13T22:15:23.481Z,7.20
2018-11-13T22:17:51.535Z,6.93
2018-11-13T22:20:20.431Z,9.43
2018-11-13T22:22:49.523Z,6.93
2018-11-13T22:25:21.001Z,7.67
2018-11-13T22:27:50.352Z,9.10
2018-11-13T22:30:21.802Z,7.67
2018-11-13T22:32:49.977Z,7.43
2018-11-13T22:35:18.713Z,7.03
2018-11-13T22:37:47.011Z,7.37
2018-11-13T22:40:16.870Z,8.20
2018-11-13T22:42:45.245Z,7.53
2018-11-13T22:45:16.663Z,7.10
2018-11-13T22:47:44.896Z,7.57
2018-11-13T22:50:16.333Z,7.27
2018-11-13T22:52:44.900Z,7.77
2018-11-13T22:55:13.821Z,7.97
2018-11-13T22:57:42.951Z,7.97
2018-11-13T23:00:15.767Z,8.17
2018-11-13T23:02:43.801Z,8.93
2018-11-13T23:05:11.976Z,8.17
2018-11-13T23:07:40.183Z,8.03
2018-11-13T23:10:10.218Z,8.63
2018-11-13T23:12:38.526Z,7.63
2018-11-13T23:15:09.038Z,8.07
2018-11-13T23:17:37.162Z,7.70
2018-11-13T23:43:06.192Z,7.77
2018-11-13T23:45:34.602Z,7.13
2018-11-13T23:48:02.805Z,6.80
2018-11-13T23:50:31.059Z,8.40
2018-11-13T23:52:59.489Z,7.10
2018-11-13T23:55:27.876Z,7.37
2018-11-13T23:57:56.053Z,7.57
